createdAt,value
2023-01-17T00:00:55.802Z,99.25
2023-01-17T00:01:55.787Z,98.73
2023-01-17T00:02:55.797Z,98.63
2023-01-17T00:03:55.809Z,98.63
2023-01-17T00:04:55.759Z,98.94
2023-01-17T00:05:55.741Z,98.83
2023-01-17T00:06:55.752Z,98.73
2023-01-17T00:07:55.725Z,98.83
2023-01-17T00:08:55.730Z,98.83
2023-01-17T00:09:55.696Z,99.46
2023-01-17T00:10:55.689Z,99.77
2023-01-17T00:11:55.678Z,99.56
2023-01-17T00:12:55.685Z,99.66
2023-01-17T00:13:55.674Z,99.77
2023-01-17T00:14:55.645Z,99.56
2023-01-17T00:15:55.687Z,99.66
2023-01-17T00:16:55.639Z,99.77
2023-01-17T00:17:55.621Z,99.87
2023-01-17T00:18:55.602Z,99.87
2023-01-17T00:19:55.613Z,99.77
2023-01-17T00:20:55.578Z,99.87
2023-01-17T00:21:55.565Z,99.87
2023-01-17T00:22:55.588Z,99.98
2023-01-17T00:23:55.551Z,99.99
2023-01-17T00:24:55.534Z,99.99
2023-01-17T00:25:55.527Z,99.99
2023-01-17T00:26:55.515Z,99.99
2023-01-17T00:27:55.532Z,99.99
2023-01-17T00:28:55.490Z,99.99
2023-01-17T00:29:55.479Z,99.98
2023-01-17T00:30:55.470Z,99.99
2023-01-17T00:31:55.457Z,99.99
2023-01-17T00:32:55.455Z,99.99
2023-01-17T00:33:55.442Z,99.99
2023-01-17T00:34:55.434Z,99.99
2023-01-17T00:35:55.438Z,99.99
2023-01-17T00:36:55.404Z,99.99
2023-01-17T00:37:55.389Z,99.99
2023-01-17T00:38:55.401Z,99.99
2023-01-17T00:39:55.365Z,99.99
2023-01-17T00:40:55.359Z,99.99
2023-01-17T00:41:55.351Z,99.99
2023-01-17T00:42:55.342Z,99.99
2023-01-17T00:43:55.358Z,99.99
2023-01-17T00:44:55.313Z,99.99
2023-01-17T00:45:55.301Z,99.99
2023-01-17T00:46:55.338Z,99.99
2023-01-17T00:47:56.923Z,99.99
2023-01-17T00:48:55.287Z,99.99
2023-01-17T00:49:55.275Z,99.99
2023-01-17T00:50:55.251Z,99.99
2023-01-17T00:51:55.267Z,99.99
2023-01-17T00:52:55.227Z,99.99
2023-01-17T00:53:55.212Z,99.99
2023-01-17T00:54:55.222Z,99.99
2023-01-17T00:55:55.193Z,99.99
2023-01-17T00:56:55.183Z,99.99
2023-01-17T00:57:55.174Z,99.99
2023-01-17T00:58:55.168Z,99.99
2023-01-17T00:59:55.177Z,99.99
2023-01-17T01:00:55.308Z,99.99
2023-01-17T01:01:55.308Z,99.99
2023-01-17T01:02:55.115Z,99.99
2023-01-17T01:03:55.099Z,99.99
2023-01-17T01:04:55.109Z,99.99
2023-01-17T01:05:55.094Z,99.99
2023-01-17T01:06:55.075Z,99.99
2023-01-17T01:07:55.087Z,99.99
2023-01-17T01:08:55.048Z,99.99
2023-01-17T01:09:55.035Z,99.86
2023-01-17T01:10:55.063Z,99.99
2023-01-17T01:11:55.014Z,99.99
2023-01-17T01:12:55.006Z,99.86
2023-01-17T01:13:54.991Z,99.30
2023-01-17T01:14:54.985Z,99.65
2023-01-17T01:15:55.011Z,99.86
2023-01-17T01:16:54.978Z,99.86
2023-01-17T01:17:54.949Z,99.44
2023-01-17T01:18:54.940Z,99.44
2023-01-17T01:19:54.925Z,99.13
2023-01-17T01:20:54.926Z,98.72
2023-01-17T01:21:54.909Z,98.61
2023-01-17T01:22:54.912Z,98.72
2023-01-17T01:23:54.901Z,98.82
2023-01-17T01:24:54.873Z,98.72
2023-01-17T01:25:54.861Z,98.99
2023-01-17T01:26:54.857Z,98.72
2023-01-17T01:27:54.867Z,98.61
2023-01-17T01:28:54.829Z,99.03
2023-01-17T01:29:54.814Z,98.88
2023-01-17T01:30:54.805Z,98.99
2023-01-17T01:31:54.820Z,98.99
2023-01-17T01:32:54.799Z,98.88
2023-01-17T01:33:54.788Z,98.78
2023-01-17T01:34:54.768Z,98.88
2023-01-17T01:35:54.759Z,98.78
2023-01-17T01:36:54.750Z,98.78
2023-01-17T01:37:54.745Z,98.88
2023-01-17T01:38:54.751Z,98.68
2023-01-17T01:39:54.726Z,98.88
2023-01-17T01:40:54.695Z,98.68
2023-01-17T01:41:54.716Z,98.83
2023-01-17T01:42:54.674Z,98.88
2023-01-17T01:43:54.680Z,98.88
2023-01-17T01:44:54.655Z,98.78
2023-01-17T01:45:54.712Z,99.09
2023-01-17T01:46:54.634Z,99.19
2023-01-17T01:47:54.653Z,98.78
2023-01-17T01:48:54.611Z,98.99
2023-01-17T01:49:54.593Z,98.78
2023-01-17T01:50:54.586Z,99.30
2023-01-17T01:51:54.576Z,99.51
2023-01-17T01:52:54.579Z,99.30
2023-01-17T01:53:54.570Z,99.82
2023-01-17T01:54:54.539Z,99.76
2023-01-17T01:55:54.554Z,99.99
2023-01-17T01:56:54.524Z,99.99
2023-01-17T01:57:54.516Z,99.92
2023-01-17T01:58:54.505Z,99.99
2023-01-17T01:59:54.496Z,99.99
2023-01-17T02:00:54.579Z,99.99
2023-01-17T02:01:54.603Z,99.99
2023-01-17T02:02:54.460Z,99.99
2023-01-17T02:03:54.508Z,99.99
2023-01-17T02:04:54.431Z,99.99
2023-01-17T02:05:54.427Z,99.99
2023-01-17T02:06:54.408Z,99.99
2023-01-17T02:07:54.398Z,99.99
2023-01-17T02:08:54.399Z,99.99
2023-01-17T02:09:54.373Z,99.99
2023-01-17T02:10:54.368Z,99.99
2023-01-17T02:11:54.394Z,99.99
2023-01-17T02:12:54.347Z,99.99
2023-01-17T02:13:54.329Z,99.96
2023-01-17T02:14:54.347Z,99.99
2023-01-17T02:15:54.326Z,99.99
2023-01-17T02:16:54.310Z,99.86
2023-01-17T02:17:54.300Z,99.76
2023-01-17T02:18:54.277Z,99.76
2023-01-17T02:19:54.263Z,99.86
2023-01-17T02:20:54.288Z,99.55
2023-01-17T02:21:54.247Z,99.24
2023-01-17T02:22:54.232Z,99.44
2023-01-17T02:23:54.216Z,99.65
2023-01-17T02:24:54.221Z,99.76
2023-01-17T02:25:54.197Z,99.86
2023-01-17T02:26:54.198Z,99.86
2023-01-17T02:27:54.201Z,98.76
2023-01-17T02:28:54.170Z,99.03
2023-01-17T02:29:54.151Z,98.93
2023-01-17T02:30:54.163Z,99.03
2023-01-17T02:31:54.210Z,98.93
2023-01-17T02:32:54.121Z,98.93
2023-01-17T02:33:54.107Z,99.03
2023-01-17T02:34:54.105Z,99.03
2023-01-17T02:35:54.084Z,98.61
2023-01-17T02:36:54.104Z,98.72
2023-01-17T02:37:54.063Z,98.76
2023-01-17T02:38:54.063Z,98.51
2023-01-17T02:39:54.123Z,98.86
2023-01-17T02:40:54.040Z,98.72
2023-01-17T02:41:54.017Z,98.55
2023-01-17T02:42:54.021Z,98.41
2023-01-17T02:43:54.023Z,98.20
2023-01-17T02:44:53.988Z,98.76
2023-01-17T02:45:54.057Z,98.66
2023-01-17T02:46:53.973Z,98.55
2023-01-17T02:47:53.954Z,98.76
2023-01-17T02:48:53.964Z,98.76
2023-01-17T02:49:53.931Z,98.55
2023-01-17T02:50:53.928Z,98.60
2023-01-17T02:51:53.914Z,98.50
2023-01-17T02:52:53.900Z,98.50
2023-01-17T02:53:53.896Z,99.02
2023-01-17T02:54:53.879Z,99.33
2023-01-17T02:55:53.878Z,99.54
2023-01-17T02:56:53.854Z,99.54
2023-01-17T02:57:53.845Z,98.91
2023-01-17T02:58:53.831Z,98.60
2023-01-17T02:59:53.856Z,98.75
2023-01-17T03:00:53.930Z,98.23
2023-01-17T03:01:54.095Z,98.23
2023-01-17T03:02:53.867Z,99.27
2023-01-17T03:03:53.774Z,99.16
2023-01-17T03:04:53.766Z,98.85
2023-01-17T03:05:53.762Z,98.44
2023-01-17T03:06:53.775Z,98.44
2023-01-17T03:07:53.732Z,98.65
2023-01-17T03:08:53.722Z,98.65
2023-01-17T03:09:53.705Z,98.65
2023-01-17T03:10:53.701Z,98.75
2023-01-17T03:11:53.705Z,98.44
2023-01-17T03:12:53.691Z,98.54
2023-01-17T03:13:53.665Z,98.65
2023-01-17T03:14:53.673Z,98.75
2023-01-17T03:15:53.675Z,98.75
2023-01-17T03:16:53.711Z,98.85
2023-01-17T03:17:53.618Z,97.86
2023-01-17T03:18:53.615Z,98.80
2023-01-17T03:19:53.602Z,98.69
2023-01-17T03:20:53.591Z,98.17
2023-01-17T03:21:53.606Z,98.07
2023-01-17T03:22:53.568Z,98.38
2023-01-17T03:23:53.558Z,98.07
2023-01-17T03:24:53.560Z,98.17
2023-01-17T03:25:53.548Z,97.96
2023-01-17T03:26:53.529Z,97.96
2023-01-17T03:27:53.529Z,97.59
2023-01-17T03:28:53.499Z,98.17
2023-01-17T03:29:53.499Z,97.96
2023-01-17T03:30:53.528Z,97.96
2023-01-17T03:31:53.563Z,97.86
2023-01-17T03:32:53.452Z,97.75
2023-01-17T03:33:53.457Z,98.07
2023-01-17T03:34:53.432Z,98.11
2023-01-17T03:35:53.437Z,98.17
2023-01-17T03:36:53.412Z,98.17
2023-01-17T03:37:53.412Z,98.07
2023-01-17T03:38:53.409Z,98.27
2023-01-17T03:39:53.399Z,98.80
2023-01-17T03:40:53.366Z,97.75
2023-01-17T03:41:53.354Z,98.07
2023-01-17T03:42:53.352Z,98.48
2023-01-17T03:43:53.333Z,98.17
2023-01-17T03:44:53.335Z,98.17
2023-01-17T03:45:53.366Z,98.17
2023-01-17T03:46:53.299Z,98.80
2023-01-17T03:47:53.321Z,98.80
2023-01-17T03:48:53.275Z,98.80
2023-01-17T03:49:53.293Z,98.80
2023-01-17T03:50:53.291Z,98.59
2023-01-17T03:51:53.253Z,98.80
2023-01-17T03:52:53.234Z,98.80
2023-01-17T03:53:53.222Z,98.69
2023-01-17T03:54:53.210Z,98.48
2023-01-17T03:55:53.211Z,98.59
2023-01-17T03:56:53.207Z,98.69
2023-01-17T03:57:53.177Z,98.59
2023-01-17T03:58:53.179Z,98.80
2023-01-17T03:59:53.156Z,98.69
2023-01-17T04:00:53.271Z,98.90
2023-01-17T04:01:53.171Z,98.90
2023-01-17T04:02:53.350Z,99.46
2023-01-17T04:03:53.142Z,99.11
2023-01-17T04:04:53.097Z,99.01
2023-01-17T04:05:53.093Z,98.48
2023-01-17T04:06:53.091Z,99.42
2023-01-17T04:07:53.068Z,99.11
2023-01-17T04:08:53.080Z,99.52
2023-01-17T04:09:53.060Z,98.90
2023-01-17T04:10:53.028Z,99.01
2023-01-17T04:11:53.020Z,99.11
2023-01-17T04:12:53.021Z,98.90
2023-01-17T04:13:53.011Z,99.01
2023-01-17T04:14:53.019Z,99.11
2023-01-17T04:15:52.982Z,98.69
2023-01-17T04:16:53.060Z,99.42
2023-01-17T04:17:52.972Z,99.01
2023-01-17T04:18:52.945Z,98.90
2023-01-17T04:19:52.963Z,98.69
2023-01-17T04:20:52.934Z,99.42
2023-01-17T04:21:52.913Z,99.36
2023-01-17T04:22:52.907Z,98.90
2023-01-17T04:23:52.886Z,98.94
2023-01-17T04:24:52.880Z,99.05
2023-01-17T04:25:52.866Z,98.90
2023-01-17T04:26:52.890Z,99.05
2023-01-17T04:27:52.845Z,99.30
2023-01-17T04:28:52.839Z,99.30
2023-01-17T04:29:52.825Z,99.57
2023-01-17T04:30:52.849Z,99.93
2023-01-17T04:31:52.845Z,99.72
2023-01-17T04:32:52.816Z,99.82
2023-01-17T04:33:52.820Z,99.67
2023-01-17T04:34:52.770Z,99.62
2023-01-17T04:35:52.785Z,99.99
2023-01-17T04:36:52.754Z,99.99
2023-01-17T04:37:52.744Z,99.99
2023-01-17T04:38:52.736Z,99.99
2023-01-17T04:39:59.807Z,99.99
2023-01-17T04:40:52.709Z,99.99
2023-01-17T04:41:52.727Z,99.99
2023-01-17T04:42:52.677Z,99.99
2023-01-17T04:43:52.673Z,99.99
2023-01-17T04:44:52.668Z,99.99
2023-01-17T04:45:52.680Z,99.99
2023-01-17T04:46:52.644Z,99.99
2023-01-17T04:47:52.657Z,99.99
2023-01-17T04:48:52.615Z,99.99
2023-01-17T04:49:52.620Z,99.99
2023-01-17T04:50:52.592Z,99.99
2023-01-17T04:51:52.610Z,99.99
2023-01-17T04:52:52.576Z,99.99
2023-01-17T04:53:52.563Z,99.99
2023-01-17T04:54:52.557Z,99.99
2023-01-17T04:55:52.536Z,99.99
2023-01-17T04:56:52.526Z,99.99
2023-01-17T04:57:52.511Z,99.99
2023-01-17T04:58:52.502Z,99.99
2023-01-17T04:59:52.522Z,99.99
2023-01-17T05:00:52.515Z,99.99
2023-01-17T05:01:52.514Z,99.99
2023-01-17T05:02:52.506Z,99.99
2023-01-17T05:03:52.454Z,99.99
2023-01-17T05:04:52.443Z,99.99
2023-01-17T05:05:52.453Z,99.99
2023-01-17T05:06:52.412Z,99.99
2023-01-17T05:07:52.431Z,99.99
2023-01-17T05:08:52.387Z,99.99
2023-01-17T05:09:52.387Z,99.99
2023-01-17T05:10:52.390Z,99.99
2023-01-17T05:11:52.362Z,99.99
2023-01-17T05:12:52.349Z,99.99
2023-01-17T05:13:52.342Z,99.99
2023-01-17T05:14:52.333Z,99.99
2023-01-17T05:15:52.372Z,99.99
2023-01-17T05:16:52.301Z,99.99
2023-01-17T05:17:52.307Z,99.99
2023-01-17T05:18:52.298Z,99.99
2023-01-17T05:19:52.277Z,99.99
2023-01-17T05:20:52.273Z,99.99
2023-01-17T05:21:52.278Z,99.99
2023-01-17T05:22:52.262Z,99.99
2023-01-17T05:23:52.256Z,99.99
2023-01-17T05:24:52.223Z,99.99
2023-01-17T05:25:52.228Z,99.99
2023-01-17T05:26:52.194Z,99.88
2023-01-17T05:27:52.181Z,99.67
2023-01-17T05:28:52.172Z,99.46
2023-01-17T05:29:52.174Z,99.67
2023-01-17T05:30:52.169Z,99.82
2023-01-17T05:31:52.138Z,99.88
2023-01-17T05:32:52.126Z,99.72
2023-01-17T05:33:52.136Z,99.93
2023-01-17T05:34:52.104Z,99.51
2023-01-17T05:35:52.096Z,99.82
2023-01-17T05:36:52.112Z,99.82
2023-01-17T05:37:52.073Z,99.99
2023-01-17T05:38:52.069Z,99.62
2023-01-17T05:39:52.073Z,99.72
2023-01-17T05:40:52.049Z,99.82
2023-01-17T05:41:52.030Z,99.62
2023-01-17T05:42:52.028Z,99.72
2023-01-17T05:43:52.014Z,99.99
2023-01-17T05:44:51.997Z,99.72
2023-01-17T05:45:51.990Z,99.99
2023-01-17T05:46:51.966Z,99.72
2023-01-17T05:47:51.996Z,99.66
2023-01-17T05:48:51.959Z,99.99
2023-01-17T05:49:51.937Z,99.93
2023-01-17T05:50:51.932Z,99.72
2023-01-17T05:51:54.740Z,99.76
2023-01-17T05:52:51.915Z,99.87
2023-01-17T05:53:51.899Z,99.99
2023-01-17T05:54:51.881Z,99.87
2023-01-17T05:55:51.891Z,99.98
2023-01-17T05:56:51.854Z,99.98
2023-01-17T05:57:51.866Z,99.87
2023-01-17T05:58:51.843Z,99.98
2023-01-17T05:59:51.844Z,99.99
2023-01-17T06:00:51.860Z,99.99
2023-01-17T06:01:51.807Z,99.99
2023-01-17T06:02:51.835Z,99.99
2023-01-17T06:03:51.794Z,99.99
2023-01-17T06:04:51.836Z,99.99
2023-01-17T06:05:51.798Z,99.99
2023-01-17T06:06:51.755Z,99.99
2023-01-17T06:07:51.742Z,99.99
2023-01-17T06:08:51.751Z,99.99
2023-01-17T06:09:51.718Z,99.99
2023-01-17T06:10:51.715Z,99.99
2023-01-17T06:11:51.717Z,99.99
2023-01-17T06:12:51.686Z,99.99
2023-01-17T06:13:51.721Z,99.87
2023-01-17T06:14:51.670Z,99.98
2023-01-17T06:15:51.685Z,99.76
2023-01-17T06:16:51.644Z,99.99
2023-01-17T06:17:51.631Z,99.99
2023-01-17T06:18:51.621Z,99.66
2023-01-17T06:19:51.613Z,99.76
2023-01-17T06:20:51.587Z,99.24
2023-01-17T06:21:51.583Z,99.14
2023-01-17T06:22:51.568Z,99.35
2023-01-17T06:23:51.597Z,99.35
2023-01-17T06:24:51.544Z,99.04
2023-01-17T06:25:51.548Z,99.14
2023-01-17T06:26:51.519Z,99.55
2023-01-17T06:27:51.537Z,99.45
2023-01-17T06:28:51.523Z,99.04
2023-01-17T06:29:51.516Z,99.14
2023-01-17T06:30:51.498Z,99.24
2023-01-17T06:31:51.472Z,99.76
2023-01-17T06:32:51.475Z,99.66
2023-01-17T06:33:51.452Z,99.24
2023-01-17T06:34:51.445Z,98.77
2023-01-17T06:35:51.445Z,98.97
2023-01-17T06:36:51.415Z,98.97
2023-01-17T06:37:51.416Z,99.18
2023-01-17T06:38:51.413Z,98.77
2023-01-17T06:39:51.385Z,98.87
2023-01-17T06:40:51.391Z,98.97
2023-01-17T06:41:51.381Z,99.29
2023-01-17T06:42:51.350Z,98.87
2023-01-17T06:43:51.379Z,98.87
2023-01-17T06:44:51.322Z,99.08
2023-01-17T06:45:51.526Z,99.13
2023-01-17T06:46:51.361Z,99.08
2023-01-17T06:47:51.304Z,98.87
2023-01-17T06:48:51.278Z,98.87
2023-01-17T06:49:51.279Z,98.77
2023-01-17T06:50:51.274Z,99.02
2023-01-17T06:51:51.246Z,98.87
2023-01-17T06:52:51.248Z,98.92
2023-01-17T06:53:51.225Z,99.02
2023-01-17T06:54:51.219Z,98.77
2023-01-17T06:55:51.220Z,98.92
2023-01-17T06:56:51.191Z,99.08
2023-01-17T06:57:51.195Z,99.33
2023-01-17T06:58:51.178Z,99.18
2023-01-17T06:59:51.181Z,99.54
2023-01-17T07:00:51.271Z,99.54
2023-01-17T07:01:51.205Z,99.23
2023-01-17T07:02:51.152Z,98.92
2023-01-17T07:03:51.186Z,99.02
2023-01-17T07:04:51.105Z,99.08
2023-01-17T07:05:51.109Z,99.02
2023-01-17T07:06:51.092Z,98.77
2023-01-17T07:07:51.078Z,99.33
2023-01-17T07:08:51.067Z,99.44
2023-01-17T07:09:51.047Z,99.44
2023-01-17T07:10:51.047Z,99.40
2023-01-17T07:11:51.042Z,99.71
2023-01-17T07:12:51.030Z,99.71
2023-01-17T07:13:51.007Z,99.44
2023-01-17T07:14:50.999Z,99.50
2023-01-17T07:15:51.048Z,99.50
2023-01-17T07:16:50.981Z,99.75
2023-01-17T07:17:50.992Z,99.33
2023-01-17T07:18:50.949Z,99.71
2023-01-17T07:19:50.951Z,99.29
2023-01-17T07:20:50.923Z,99.29
2023-01-17T07:21:50.929Z,99.40
2023-01-17T07:22:50.937Z,99.29
2023-01-17T07:23:50.887Z,99.71
2023-01-17T07:24:50.885Z,99.81
2023-01-17T07:25:50.868Z,99.85
2023-01-17T07:26:50.854Z,99.75
2023-01-17T07:27:50.851Z,99.71
2023-01-17T07:28:50.848Z,99.50
2023-01-17T07:29:52.241Z,99.60
2023-01-17T07:30:50.811Z,99.81
2023-01-17T07:31:50.825Z,99.50
2023-01-17T07:32:50.803Z,99.54
2023-01-17T07:33:50.788Z,99.75
2023-01-17T07:34:50.774Z,99.33
2023-01-17T07:35:50.779Z,99.02
2023-01-17T07:36:50.752Z,99.44
2023-01-17T07:37:50.744Z,99.65
2023-01-17T07:38:50.723Z,99.54
2023-01-17T07:39:50.721Z,99.65
2023-01-17T07:40:50.712Z,99.23
2023-01-17T07:41:50.695Z,99.33
2023-01-17T07:42:50.689Z,99.33
2023-01-17T07:43:50.671Z,99.33
2023-01-17T07:44:50.656Z,99.44
2023-01-17T07:45:50.809Z,99.33
2023-01-17T07:46:50.735Z,99.44
2023-01-17T07:47:50.652Z,99.33
2023-01-17T07:48:50.631Z,99.44
2023-01-17T07:49:50.602Z,99.48
2023-01-17T07:50:50.594Z,99.27
2023-01-17T07:51:50.583Z,99.75
2023-01-17T07:52:50.568Z,99.75
2023-01-17T07:53:50.574Z,99.75
2023-01-17T07:54:50.563Z,99.75
2023-01-17T07:55:50.532Z,99.99
2023-01-17T07:56:50.531Z,99.99
2023-01-17T07:57:50.516Z,99.85
2023-01-17T07:58:50.505Z,99.75
2023-01-17T07:59:50.525Z,99.33
2023-01-17T08:00:50.573Z,99.13
2023-01-17T08:01:50.563Z,99.99
2023-01-17T08:02:50.462Z,99.65
2023-01-17T08:03:50.492Z,99.96
2023-01-17T08:04:50.469Z,99.40
2023-01-17T08:05:50.421Z,99.23
2023-01-17T08:06:50.415Z,99.65
2023-01-17T08:07:50.429Z,99.75
2023-01-17T08:08:50.402Z,99.27
2023-01-17T08:09:50.389Z,99.44
2023-01-17T08:10:50.378Z,99.33
2023-01-17T08:11:50.360Z,99.33
2023-01-17T08:12:50.346Z,99.80
2023-01-17T08:13:50.330Z,99.44
2023-01-17T08:14:50.328Z,99.54
2023-01-17T08:15:50.331Z,99.23
2023-01-17T08:16:50.394Z,99.75
2023-01-17T08:17:50.289Z,99.65
2023-01-17T08:18:50.285Z,99.44
2023-01-17T08:19:50.294Z,99.54
2023-01-17T08:20:50.269Z,99.75
2023-01-17T08:21:50.246Z,99.44
2023-01-17T08:22:50.246Z,99.44
2023-01-17T08:23:50.238Z,99.75
2023-01-17T08:24:50.217Z,99.33
2023-01-17T08:25:50.209Z,99.44
2023-01-17T08:26:50.204Z,99.29
2023-01-17T08:27:50.184Z,99.29
2023-01-17T08:28:50.172Z,98.71
2023-01-17T08:29:50.157Z,99.02
2023-01-17T08:30:50.178Z,99.13
2023-01-17T08:31:50.203Z,99.13
2023-01-17T08:32:50.152Z,98.97
2023-01-17T08:33:50.120Z,99.13
2023-01-17T08:34:50.102Z,99.08
2023-01-17T08:35:50.117Z,99.02
2023-01-17T08:36:50.152Z,98.71
2023-01-17T08:37:50.069Z,99.44
2023-01-17T08:38:50.057Z,98.46
2023-01-17T08:39:50.062Z,99.40
2023-01-17T08:40:50.035Z,98.92
2023-01-17T08:41:50.073Z,99.18
2023-01-17T08:42:50.026Z,99.29
2023-01-17T08:43:50.009Z,98.97
2023-01-17T08:44:50.019Z,99.40
2023-01-17T08:45:50.002Z,99.50
2023-01-17T08:46:49.970Z,99.40
2023-01-17T08:47:49.961Z,99.18
2023-01-17T08:48:49.946Z,99.40
2023-01-17T08:49:49.937Z,99.40
2023-01-17T08:50:49.922Z,98.77
2023-01-17T08:51:49.955Z,99.45
2023-01-17T08:52:49.934Z,98.62
2023-01-17T08:53:49.888Z,98.31
2023-01-17T08:54:49.896Z,97.89
2023-01-17T08:55:49.867Z,99.15
2023-01-17T08:56:49.867Z,97.59
2023-01-17T08:57:49.860Z,97.95
2023-01-17T08:58:49.839Z,97.70
2023-01-17T08:59:49.832Z,97.80
2023-01-17T09:00:49.986Z,97.61
2023-01-17T09:01:49.951Z,96.72
2023-01-17T09:02:49.805Z,96.41
2023-01-17T09:03:49.782Z,96.14
2023-01-17T09:04:49.774Z,96.08
2023-01-17T09:05:49.768Z,96.55
2023-01-17T09:06:49.759Z,96.67
2023-01-17T09:07:49.779Z,95.42
2023-01-17T09:08:49.769Z,94.84
2023-01-17T09:09:49.714Z,95.09
2023-01-17T09:10:49.702Z,95.36
2023-01-17T09:11:49.705Z,94.70
2023-01-17T09:12:49.689Z,94.53
2023-01-17T09:13:49.676Z,93.80
2023-01-17T09:14:49.663Z,94.78
2023-01-17T09:15:49.659Z,95.30
2023-01-17T09:16:49.745Z,95.30
2023-01-17T09:17:49.622Z,95.83
2023-01-17T09:18:49.623Z,95.40
2023-01-17T09:19:49.623Z,95.93
2023-01-17T09:20:49.596Z,96.82
2023-01-17T09:21:49.579Z,95.90
2023-01-17T09:22:49.577Z,95.17
2023-01-17T09:23:49.580Z,94.76
2023-01-17T09:24:49.561Z,94.38
2023-01-17T09:25:49.534Z,94.22
2023-01-17T09:26:49.533Z,94.01
2023-01-17T09:27:49.526Z,94.95
2023-01-17T09:28:49.526Z,95.26
2023-01-17T09:29:49.519Z,94.78
2023-01-17T09:30:49.578Z,95.30
2023-01-17T09:31:49.474Z,95.51
2023-01-17T09:32:49.464Z,95.51
2023-01-17T09:33:49.488Z,96.20
2023-01-17T09:34:49.453Z,95.47
2023-01-17T09:35:49.439Z,95.89
2023-01-17T09:36:49.430Z,95.05
2023-01-17T09:37:49.416Z,95.05
2023-01-17T09:38:49.396Z,95.26
2023-01-17T09:39:49.428Z,94.70
2023-01-17T09:40:49.372Z,95.07
2023-01-17T09:41:49.358Z,94.40
2023-01-17T09:42:49.358Z,93.74
2023-01-17T09:43:49.342Z,93.01
2023-01-17T09:44:49.344Z,91.45
2023-01-17T09:45:49.352Z,91.55
2023-01-17T09:46:49.312Z,91.20
2023-01-17T09:47:49.312Z,90.37
2023-01-17T09:48:49.297Z,90.62
2023-01-17T09:49:49.297Z,90.27
2023-01-17T09:50:49.273Z,90.62
2023-01-17T09:51:49.257Z,90.37
2023-01-17T09:52:49.250Z,90.79
2023-01-17T09:53:49.228Z,90.10
2023-01-17T09:54:49.232Z,90.83
2023-01-17T09:55:49.239Z,90.87
2023-01-17T09:56:49.195Z,90.31
2023-01-17T09:57:49.192Z,91.76
2023-01-17T09:58:49.176Z,91.41
2023-01-17T10:00:02.443Z,91.62
2023-01-17T10:00:50.209Z,90.62
2023-01-17T10:01:49.225Z,90.83
2023-01-17T10:02:49.283Z,91.91
2023-01-17T10:03:49.282Z,91.35
2023-01-17T10:04:49.117Z,91.45
2023-01-17T10:05:49.112Z,91.45
2023-01-17T10:06:49.094Z,91.60
2023-01-17T10:07:49.079Z,91.80
2023-01-17T10:08:49.065Z,91.66
2023-01-17T10:09:49.078Z,92.01
2023-01-17T10:10:49.052Z,91.66
2023-01-17T10:11:49.100Z,92.18
2023-01-17T10:12:49.020Z,92.22
2023-01-17T10:13:49.021Z,92.07
2023-01-17T10:14:48.999Z,92.28
2023-01-17T10:15:48.991Z,91.66
2023-01-17T10:16:49.025Z,92.38
2023-01-17T10:17:48.966Z,92.32
2023-01-17T10:18:48.955Z,91.55
2023-01-17T10:19:48.941Z,92.07
2023-01-17T10:20:48.943Z,92.01
2023-01-17T10:21:48.931Z,92.01
2023-01-17T10:22:48.911Z,92.43
2023-01-17T10:23:48.896Z,93.12
2023-01-17T10:24:48.888Z,92.18
2023-01-17T10:25:48.883Z,93.12
2023-01-17T10:26:48.868Z,93.22
2023-01-17T10:27:48.873Z,92.38
2023-01-17T10:28:48.888Z,92.01
2023-01-17T10:29:48.832Z,91.86
2023-01-17T10:30:48.970Z,91.91
2023-01-17T10:31:48.809Z,92.11
2023-01-17T10:32:48.800Z,92.01
2023-01-17T10:33:48.802Z,91.80
2023-01-17T10:34:48.788Z,92.11
2023-01-17T10:35:48.764Z,93.30
2023-01-17T10:36:48.789Z,93.20
2023-01-17T10:37:48.746Z,92.99
2023-01-17T10:38:48.745Z,92.99
2023-01-17T10:39:48.741Z,93.30
2023-01-17T10:40:55.844Z,93.62
2023-01-17T10:41:48.696Z,93.20
2023-01-17T10:42:48.999Z,93.37
2023-01-17T10:43:48.700Z,93.41
2023-01-17T10:44:48.684Z,92.99
2023-01-17T10:45:48.762Z,93.20
2023-01-17T10:46:48.648Z,93.82
2023-01-17T10:47:48.644Z,93.62
2023-01-17T10:48:48.622Z,92.99
2023-01-17T10:49:48.645Z,92.99
2023-01-17T10:50:48.605Z,93.24
2023-01-17T10:51:48.603Z,92.82
2023-01-17T10:52:48.579Z,92.82
2023-01-17T10:53:48.576Z,93.24
2023-01-17T10:54:48.580Z,93.30
2023-01-17T10:55:48.561Z,93.82
2023-01-17T10:56:48.560Z,93.82
2023-01-17T10:57:48.524Z,92.88
2023-01-17T10:58:48.523Z,93.10
2023-01-17T10:59:48.522Z,92.61
2023-01-17T11:00:48.584Z,91.99
2023-01-17T11:01:51.006Z,92.36
2023-01-17T11:02:48.558Z,92.36
2023-01-17T11:03:48.472Z,92.99
2023-01-17T11:04:48.449Z,93.20
2023-01-17T11:05:48.451Z,92.22
2023-01-17T11:06:57.806Z,92.16
2023-01-17T11:07:48.455Z,91.70
2023-01-17T11:08:48.416Z,91.80
2023-01-17T11:09:48.387Z,91.80
2023-01-17T11:10:48.418Z,91.80
2023-01-17T11:11:48.380Z,92.01
2023-01-17T11:12:48.363Z,91.49
2023-01-17T11:13:48.363Z,91.91
2023-01-17T11:14:48.338Z,91.76
2023-01-17T11:15:48.395Z,91.45
2023-01-17T11:16:48.350Z,91.76
2023-01-17T11:17:48.300Z,91.76
2023-01-17T11:18:48.311Z,90.97
2023-01-17T11:19:48.278Z,91.91
2023-01-17T11:20:48.356Z,91.22
2023-01-17T11:21:48.256Z,90.77
2023-01-17T11:22:48.273Z,90.91
2023-01-17T11:23:48.265Z,90.81
2023-01-17T11:24:48.231Z,90.70
2023-01-17T11:25:48.228Z,90.87
2023-01-17T11:26:48.217Z,90.77
2023-01-17T11:27:48.193Z,90.77
2023-01-17T11:28:48.198Z,90.35
2023-01-17T11:29:48.237Z,91.08
2023-01-17T11:30:48.218Z,91.28
2023-01-17T11:31:48.177Z,91.35
2023-01-17T11:32:48.136Z,91.45
2023-01-17T11:33:48.140Z,91.45
2023-01-17T11:34:48.118Z,90.83
2023-01-17T11:35:48.111Z,90.83
2023-01-17T11:36:48.105Z,90.89
2023-01-17T11:37:48.081Z,91.10
2023-01-17T11:38:48.069Z,91.62
2023-01-17T11:39:48.099Z,91.27
2023-01-17T11:40:48.066Z,92.10
2023-01-17T11:41:48.032Z,90.95
2023-01-17T11:42:48.025Z,90.64
2023-01-17T11:43:48.012Z,90.33
2023-01-17T11:44:48.016Z,89.98
2023-01-17T11:45:48.000Z,89.98
2023-01-17T11:46:47.999Z,90.39
2023-01-17T11:47:47.994Z,89.98
2023-01-17T11:48:47.961Z,89.87
2023-01-17T11:49:47.958Z,89.52
2023-01-17T11:50:47.961Z,88.48
2023-01-17T11:51:47.923Z,88.01
2023-01-17T11:52:47.926Z,89.21
2023-01-17T11:53:47.908Z,89.21
2023-01-17T11:54:47.889Z,88.65
2023-01-17T11:55:47.910Z,87.76
2023-01-17T11:56:47.884Z,87.51
2023-01-17T11:57:47.857Z,87.45
2023-01-17T11:58:47.849Z,87.41
2023-01-17T11:59:47.854Z,86.41
2023-01-17T12:00:47.914Z,86.72
2023-01-17T12:01:47.823Z,86.00
2023-01-17T12:02:47.805Z,85.89
2023-01-17T12:03:47.867Z,86.21
2023-01-17T12:04:47.841Z,87.04
2023-01-17T12:05:47.772Z,86.21
2023-01-17T12:06:57.122Z,85.31
2023-01-17T12:07:48.755Z,85.52
2023-01-17T12:08:47.741Z,85.27
2023-01-17T12:09:47.735Z,85.89
2023-01-17T12:10:47.718Z,84.69
2023-01-17T12:11:47.727Z,85.58
2023-01-17T12:12:47.697Z,85.21
2023-01-17T12:13:47.703Z,85.11
2023-01-17T12:14:47.676Z,85.63
2023-01-17T12:15:47.727Z,84.80
2023-01-17T12:16:47.658Z,85.58
2023-01-17T12:17:47.648Z,85.48
2023-01-17T12:18:47.626Z,85.38
2023-01-17T12:19:47.648Z,85.48
2023-01-17T12:20:47.609Z,85.55
2023-01-17T12:21:47.598Z,84.51
2023-01-17T12:22:47.656Z,84.09
2023-01-17T12:23:47.575Z,83.12
2023-01-17T12:24:47.574Z,83.12
2023-01-17T12:25:47.560Z,83.02
2023-01-17T12:26:47.572Z,83.02
2023-01-17T12:27:47.539Z,81.95
2023-01-17T12:28:47.528Z,80.74
2023-01-17T12:29:47.506Z,80.74
2023-01-17T12:30:47.507Z,80.85
2023-01-17T12:31:47.487Z,80.54
2023-01-17T12:32:47.547Z,80.74
2023-01-17T12:33:47.472Z,80.64
2023-01-17T12:34:47.474Z,80.88
2023-01-17T12:35:47.462Z,80.88
2023-01-17T12:36:49.352Z,80.99
2023-01-17T12:37:57.342Z,81.09
2023-01-17T12:38:48.410Z,81.09
2023-01-17T12:39:47.394Z,81.82
2023-01-17T12:40:47.393Z,81.34
2023-01-17T12:41:47.375Z,81.54
2023-01-17T12:42:48.840Z,82.20
2023-01-17T12:43:47.357Z,82.10
2023-01-17T12:44:47.340Z,82.20
2023-01-17T12:45:47.337Z,82.20
2023-01-17T12:46:47.360Z,81.58
2023-01-17T12:47:47.305Z,82.10
2023-01-17T12:48:47.301Z,81.68
2023-01-17T12:49:47.282Z,82.45
2023-01-17T12:50:47.274Z,82.34
2023-01-17T12:51:47.498Z,82.82
2023-01-17T12:52:47.249Z,82.82